Weather at Killarney Airport

Public forecast

Using degrees Celsius for public forecast. Weather courtesy of forecast.io.

Closest aviation weather report (METAR) to Killarney Airport

Closest report is Gore Bay Manitoulin Airport, 45.2 nm (83.6 km) W. Retrieved 2021/01/25 16:00 UTC (28 minutes ago):

CYZE 251600Z AUTO VRB10KT 9SM FEW021 BKN030 OVC036 M03/M07 A3009 RMK SLP203

Closest aviation forecast (TAF) to Killarney Airport

Closest forecast is Gore Bay Manitoulin Airport, 45.2 nm (83.6 km) W. Retrieved 2021/01/25 14:00 UTC (2 hours ago):

TAF CYZE 251338Z 2514/2523 VRB03KT P6SM SKC TEMPO 2514/2515 5SM BR FM251600 27007KT P6SM SCT030 TEMPO 2516/2518 BKN030 FM251800 30010KT P6SM BKN030 TEMPO 2518/2523 SCT030 RMK FCST BASED ON AUTO OBS NXT FCST BY 252000Z